Time;durP1;ratioP1;P1;durP2;ratioP2;P2;SDS_P1;SDS_P2;PMS_P1;PMS_P2;Temp;Humidity;BMP_temperature;BMP_pressure;BME280_temperature;BME280_humidity;BME280_pressure;Samples;Min_cycle;Max_cycle;Signal;HPM_P1;HPM_P2
2022/07/25 04:01:26;;;;;;;4.50;4.30;;;19.80;99.90;;;;;;5497678;23;20508;-67
2022/07/25 04:03:53;;;;;;;4.30;4.10;;;19.80;99.90;;;;;;4986344;28;20477;-65
2022/07/25 04:06:19;;;;;;;3.80;3.70;;;19.80;99.90;;;;;;4990839;28;20941;-66
2022/07/25 04:08:46;;;;;;;4.00;3.90;;;19.90;99.90;;;;;;4990253;28;20843;-66
2022/07/25 04:11:13;;;;;;;4.47;4.27;;;19.90;99.90;;;;;;4990259;28;20489;-66
2022/07/25 04:13:40;;;;;;;5.63;5.13;;;19.90;99.90;;;;;;4990102;28;20973;-66
2022/07/25 04:16:06;;;;;;;4.20;4.00;;;19.90;99.90;;;;;;4989653;28;20949;-66
2022/07/25 04:18:34;;;;;;;4.13;3.73;;;19.90;99.90;;;;;;4990324;28;20799;-66
2022/07/25 04:21:01;;;;;;;4.27;3.97;;;19.90;99.90;;;;;;4989169;28;20506;-66
2022/07/25 04:23:28;;;;;;;3.93;3.83;;;19.90;99.90;;;;;;4990323;28;20466;-66
2022/07/25 04:25:54;;;;;;;4.57;4.23;;;20.00;99.90;;;;;;4989356;28;20553;-66
2022/07/25 04:28:21;;;;;;;4.87;4.53;;;20.00;99.90;;;;;;4990123;28;20473;-66
2022/07/25 04:30:49;;;;;;;4.90;4.60;;;20.00;99.90;;;;;;4989224;28;20484;-66
2022/07/25 04:33:16;;;;;;;4.03;3.93;;;20.00;99.90;;;;;;4988024;28;20523;-66
2022/07/25 04:35:45;;;;;;;4.47;4.17;;;20.10;99.90;;;;;;4990067;28;20471;-66
2022/07/25 04:38:12;;;;;;;4.30;4.10;;;20.30;99.90;;;;;;4990459;28;20850;-66
2022/07/25 04:40:39;;;;;;;3.53;3.43;;;20.90;99.90;;;;;;4988491;28;21017;-66
2022/07/25 04:43:05;;;;;;;4.07;3.97;;;21.60;99.90;;;;;;4987184;28;20468;-66
2022/07/25 04:45:33;;;;;;;3.33;3.23;;;22.20;99.90;;;;;;4989870;28;20474;-66
2022/07/25 04:48:00;;;;;;;3.70;3.60;;;22.80;99.90;;;;;;4990500;28;20470;-66
2022/07/25 04:50:27;;;;;;;3.60;3.50;;;23.40;99.90;;;;;;4989871;28;20528;-66
2022/07/25 04:52:55;;;;;;;3.40;3.30;;;23.70;99.90;;;;;;4987737;28;20474;-66
2022/07/25 04:55:22;;;;;;;3.60;3.50;;;24.00;99.90;;;;;;4987282;28;20518;-66
2022/07/25 04:57:49;;;;;;;3.00;3.00;;;24.30;99.90;;;;;;4990013;28;20967;-66
2022/07/25 05:00:16;;;;;;;3.10;3.00;;;24.70;99.90;;;;;;4988210;28;20487;-66
2022/07/25 05:02:43;;;;;;;3.27;3.17;;;25.10;99.90;;;;;;4988426;28;20472;-66
2022/07/25 05:05:10;;;;;;;3.70;3.50;;;25.40;99.90;;;;;;4985966;28;21004;-66
2022/07/25 05:07:37;;;;;;;3.80;3.70;;;25.60;99.90;;;;;;4989961;28;20518;-66
2022/07/25 05:10:06;;;;;;;3.43;3.23;;;25.80;99.80;;;;;;4992534;28;20530;-66
2022/07/25 05:12:32;;;;;;;3.63;3.43;;;26.00;99.20;;;;;;4990244;28;20936;-66
2022/07/25 05:14:59;;;;;;;3.47;3.43;;;26.20;98.40;;;;;;4980592;28;21000;-67
2022/07/25 05:17:26;;;;;;;3.30;3.30;;;26.50;98.40;;;;;;4990988;28;20932;-66
2022/07/25 05:19:52;;;;;;;3.03;3.03;;;26.60;97.50;;;;;;4993067;28;21013;-66
2022/07/25 05:22:19;;;;;;;3.10;3.00;;;26.60;96.90;;;;;;4991582;28;20995;-66
2022/07/25 05:24:46;;;;;;;3.20;3.10;;;26.30;96.60;;;;;;4993502;28;20464;-66
2022/07/25 05:27:14;;;;;;;3.13;3.03;;;25.70;97.10;;;;;;4992160;28;20468;-66
2022/07/25 05:29:40;;;;;;;3.33;3.17;;;25.10;98.60;;;;;;4985849;28;20544;-66
2022/07/25 05:32:07;;;;;;;3.93;3.63;;;25.00;99.00;;;;;;4991002;28;20494;-66
2022/07/25 05:34:34;;;;;;;3.93;3.63;;;24.80;99.20;;;;;;4991591;28;20478;-66
2022/07/25 05:37:00;;;;;;;4.40;4.20;;;24.60;99.50;;;;;;4992308;28;20463;-67
2022/07/25 05:39:27;;;;;;;3.67;3.60;;;24.40;99.70;;;;;;4992759;28;20526;-66
2022/07/25 05:41:54;;;;;;;3.60;3.30;;;24.30;99.90;;;;;;4992820;28;20491;-67
2022/07/25 05:44:22;;;;;;;3.87;3.63;;;24.10;99.90;;;;;;4985037;28;20470;-66
2022/07/25 05:46:49;;;;;;;3.40;3.20;;;23.90;99.90;;;;;;4992012;28;20518;-67
2022/07/25 05:49:15;;;;;;;6.50;4.07;;;23.80;99.90;;;;;;4986949;28;20566;-67
2022/07/25 05:51:42;;;;;;;3.53;3.33;;;23.70;99.90;;;;;;4989167;28;20548;-67
2022/07/25 05:54:09;;;;;;;3.90;3.60;;;23.60;99.90;;;;;;4984068;28;20481;-67
2022/07/25 05:56:35;;;;;;;3.33;3.33;;;23.70;99.90;;;;;;4993403;28;20489;-67
2022/07/25 05:59:02;;;;;;;4.00;3.80;;;23.80;99.90;;;;;;4989361;28;20480;-67
2022/07/25 06:01:30;;;;;;;3.40;3.27;;;24.10;99.90;;;;;;4990987;28;20838;-67
2022/07/25 06:03:57;;;;;;;4.60;4.30;;;24.40;99.90;;;;;;4987275;28;20479;-67
2022/07/25 06:06:24;;;;;;;4.13;3.93;;;24.70;99.90;;;;;;4988581;28;20473;-67
2022/07/25 06:08:51;;;;;;;3.60;3.50;;;24.70;99.90;;;;;;4991092;28;20468;-67
2022/07/25 06:11:17;;;;;;;4.40;4.10;;;24.60;99.90;;;;;;4990227;28;20845;-67
2022/07/25 06:13:44;;;;;;;3.87;3.67;;;24.50;99.90;;;;;;4988854;28;20858;-67
2022/07/25 06:16:10;;;;;;;3.47;3.37;;;24.70;99.90;;;;;;4992060;28;20472;-67
2022/07/25 06:18:38;;;;;;;3.83;3.40;;;25.40;99.90;;;;;;4990358;28;20495;-67
2022/07/25 06:21:06;;;;;;;4.07;3.87;;;25.90;99.60;;;;;;4996932;28;20572;-67
2022/07/25 06:23:32;;;;;;;3.83;3.80;;;26.20;99.50;;;;;;4992046;28;20560;-67
2022/07/25 06:25:59;;;;;;;4.13;3.90;;;25.90;99.10;;;;;;4990003;28;20467;-67
2022/07/25 06:28:26;;;;;;;3.83;3.60;;;25.50;99.40;;;;;;4987206;28;20494;-66
2022/07/25 06:30:53;;;;;;;3.80;3.60;;;25.80;99.90;;;;;;4987782;28;20498;-66
2022/07/25 06:33:19;;;;;;;3.70;3.70;;;26.70;99.10;;;;;;4989964;28;20994;-66
2022/07/25 06:35:47;;;;;;;3.30;3.30;;;27.50;97.30;;;;;;4986696;28;20475;-67
2022/07/25 06:38:14;;;;;;;3.70;3.70;;;28.10;96.90;;;;;;4989744;28;20473;-67
2022/07/25 06:40:41;;;;;;;3.93;3.83;;;29.00;95.80;;;;;;4990695;28;20289;-67
2022/07/25 06:43:07;;;;;;;3.30;3.30;;;29.80;94.70;;;;;;4990635;28;20465;-67
2022/07/25 06:45:34;;;;;;;3.40;3.40;;;30.10;93.00;;;;;;4988323;28;20634;-67
2022/07/25 06:48:01;;;;;;;3.53;3.23;;;30.60;92.50;;;;;;4991341;28;20623;-67
2022/07/25 06:50:28;;;;;;;3.40;3.40;;;31.00;91.20;;;;;;4989056;28;20474;-67
2022/07/25 06:52:55;;;;;;;4.03;3.83;;;31.10;90.80;;;;;;4990718;28;20466;-67
2022/07/25 06:55:22;;;;;;;4.20;4.03;;;31.10;90.40;;;;;;4986041;28;20881;-67
2022/07/25 06:57:49;;;;;;;3.60;3.47;;;30.70;90.40;;;;;;4990858;28;20575;-67
2022/07/25 07:00:16;;;;;;;4.23;3.90;;;30.70;91.00;;;;;;4990728;28;20470;-67
2022/07/25 07:02:51;;;;;;;4.27;4.20;;;30.70;90.20;;;;;;4982908;28;20958;-67
2022/07/25 07:05:18;;;;;;;4.40;4.20;;;30.20;90.20;;;;;;4989210;28;20528;-67
2022/07/25 07:07:45;;;;;;;4.10;4.00;;;29.90;90.70;;;;;;4989147;28;20474;-66
2022/07/25 07:10:13;;;;;;;4.23;4.03;;;29.70;90.90;;;;;;4990221;28;20475;-67
2022/07/25 07:12:39;;;;;;;4.10;4.00;;;29.30;91.60;;;;;;4990029;28;20482;-67
2022/07/25 07:15:07;;;;;;;4.17;3.97;;;29.30;91.80;;;;;;4987135;28;20528;-67
2022/07/25 07:17:33;;;;;;;4.33;4.13;;;29.90;92.10;;;;;;4990338;28;20953;-67
2022/07/25 07:20:00;;;;;;;4.83;4.73;;;30.50;90.00;;;;;;4986956;28;20464;-68
2022/07/25 07:22:27;;;;;;;5.03;4.80;;;30.50;89.40;;;;;;4983186;28;20494;-68
2022/07/25 07:24:53;;;;;;;4.80;4.60;;;30.80;90.00;;;;;;4988381;28;21000;-66
2022/07/25 07:27:22;;;;;;;5.40;5.20;;;31.30;88.80;;;;;;4985032;28;20474;-67
2022/07/25 07:29:49;;;;;;;5.00;4.70;;;31.00;86.60;;;;;;4990407;28;20873;-67
2022/07/25 07:32:16;;;;;;;5.30;5.10;;;30.70;87.70;;;;;;4986892;28;20486;-66
2022/07/25 07:34:43;;;;;;;5.43;5.23;;;30.80;89.60;;;;;;4991177;28;20469;-66
2022/07/25 07:37:09;;;;;;;4.83;4.63;;;30.80;87.20;;;;;;4988034;28;20474;-67
2022/07/25 07:39:36;;;;;;;5.70;5.30;;;31.30;88.10;;;;;;4987895;28;20572;-67
2022/07/25 07:42:03;;;;;;;4.90;4.80;;;31.60;86.90;;;;;;4988766;28;20517;-67
2022/07/25 07:44:31;;;;;;;5.20;4.90;;;31.20;86.70;;;;;;4990656;28;20570;-67
2022/07/25 07:47:01;;;;;;;6.03;5.63;;;30.90;88.00;;;;;;4990857;28;20533;-66
2022/07/25 07:49:28;;;;;;;5.23;5.03;;;31.10;87.50;;;;;;4988474;28;20912;-66
2022/07/25 07:51:54;;;;;;;5.23;4.90;;;31.20;86.80;;;;;;4987677;28;21036;-66
2022/07/25 07:57:05;;;;;;;5.00;4.90;;;31.60;85.70;;;;;;4987597;28;20473;-67
2022/07/25 07:59:33;;;;;;;5.23;5.00;;;31.30;86.70;;;;;;4984497;28;20469;-67
2022/07/25 08:02:00;;;;;;;4.90;4.80;;;31.30;86.40;;;;;;4990753;28;20498;-67
2022/07/25 08:04:27;;;;;;;5.50;5.40;;;31.50;86.60;;;;;;4986984;28;20470;-67
2022/07/25 08:06:54;;;;;;;5.80;5.40;;;31.80;84.90;;;;;;4990201;28;20474;-67
2022/07/25 08:09:21;;;;;;;6.07;5.87;;;32.40;85.10;;;;;;4988029;28;20477;-67
2022/07/25 08:11:47;;;;;;;5.40;5.30;;;32.80;83.70;;;;;;4993302;28;20801;-67
2022/07/25 08:14:14;;;;;;;6.77;6.47;;;32.50;81.70;;;;;;4993997;28;20482;-67
2022/07/25 08:16:42;;;;;;;6.67;6.30;;;32.40;82.20;;;;;;4993554;28;20810;-68
2022/07/25 08:19:09;;;;;;;5.87;5.67;;;32.40;81.40;;;;;;4992111;28;20485;-67
2022/07/25 08:21:36;;;;;;;6.43;6.13;;;32.20;80.90;;;;;;4990577;28;20486;-65
2022/07/25 08:24:02;;;;;;;5.90;5.53;;;31.80;81.10;;;;;;4985185;28;20982;-65
2022/07/25 08:26:32;;;;;;;6.37;6.07;;;31.80;83.20;;;;;;4987919;28;20534;-66
2022/07/25 08:28:58;;;;;;;6.70;6.30;;;31.80;81.40;;;;;;4986580;28;20532;-65
2022/07/25 08:31:26;;;;;;;7.23;6.93;;;31.60;82.20;;;;;;4988845;28;20544;-66
2022/07/25 08:33:54;;;;;;;6.63;6.43;;;31.30;82.80;;;;;;4987578;28;20470;-66
2022/07/25 08:36:21;;;;;;;7.40;7.10;;;31.20;82.70;;;;;;4985742;28;20550;-66
2022/07/25 08:38:48;;;;;;;7.10;6.70;;;31.10;83.70;;;;;;4987174;28;20539;-66
2022/07/25 08:41:14;;;;;;;7.17;6.77;;;31.20;83.10;;;;;;4982637;28;20490;-66
2022/07/25 08:43:43;;;;;;;7.33;7.03;;;31.10;82.70;;;;;;4988609;28;20473;-66
2022/07/25 08:46:10;;;;;;;7.90;7.40;;;31.00;83.30;;;;;;4991234;28;20470;-66
2022/07/25 08:48:37;;;;;;;7.90;7.40;;;31.10;83.50;;;;;;4993669;28;20460;-66
2022/07/25 08:51:06;;;;;;;7.30;7.00;;;31.20;82.90;;;;;;4992039;28;20534;-66
2022/07/25 08:53:35;;;;;;;7.43;7.03;;;31.10;83.40;;;;;;4985386;28;20468;-66
2022/07/25 08:56:03;;;;;;;8.07;7.70;;;31.30;83.60;;;;;;4990713;28;20527;-66
2022/07/25 08:58:30;;;;;;;7.67;7.30;;;31.30;82.50;;;;;;4992505;28;20469;-66
2022/07/25 09:00:58;;;;;;;6.93;6.63;;;31.40;82.90;;;;;;4990393;28;20641;-66
2022/07/25 09:03:26;;;;;;;8.03;7.63;;;31.40;81.70;;;;;;4991764;28;20478;-67
2022/07/25 09:05:53;;;;;;;8.23;7.73;;;31.40;80.70;;;;;;4989339;28;20530;-66
2022/07/25 09:08:21;;;;;;;7.67;7.37;;;31.30;81.90;;;;;;4990937;28;20474;-66
2022/07/25 09:10:49;;;;;;;7.20;6.90;;;31.40;81.40;;;;;;4991752;28;20492;-66
2022/07/25 09:13:17;;;;;;;7.80;7.40;;;31.40;80.10;;;;;;4983909;28;20470;-67
2022/07/25 09:15:46;;;;;;;7.73;7.43;;;31.20;80.90;;;;;;4991171;28;20518;-66
2022/07/25 09:18:15;;;;;;;8.77;8.27;;;31.10;80.20;;;;;;4990695;28;20537;-66
2022/07/25 09:20:44;;;;;;;8.00;7.60;;;31.00;81.30;;;;;;4990700;28;20513;-66
2022/07/25 09:23:13;;;;;;;7.93;7.43;;;31.10;81.40;;;;;;4987323;28;20549;-66
2022/07/25 09:25:42;;;;;;;8.60;8.20;;;31.10;81.40;;;;;;4990040;28;20971;-66
2022/07/25 09:28:11;;;;;;;8.53;8.13;;;31.20;81.10;;;;;;4985228;28;20959;-67
2022/07/25 09:30:38;;;;;;;8.37;7.87;;;31.40;81.50;;;;;;4992554;28;20603;-66
2022/07/25 09:33:04;;;;;;;6.50;6.20;;;31.40;81.10;;;;;;4986962;28;20546;-66
2022/07/25 09:35:33;;;;;;;9.33;8.80;;;31.70;80.70;;;;;;4990478;28;20474;-67
2022/07/25 09:38:13;;;;;;;7.93;7.43;;;31.70;80.30;;;;;;4990072;28;20938;-67
2022/07/25 09:40:42;;;;;;;7.83;7.43;;;31.90;80.40;;;;;;4984927;28;20497;-66
2022/07/25 09:43:08;;;;;;;8.10;7.60;;;31.90;79.70;;;;;;4987754;28;21049;-66
2022/07/25 09:45:35;;;;;;;7.73;7.33;;;32.00;79.60;;;;;;4988134;28;20563;-66
2022/07/25 09:48:04;;;;;;;7.03;6.63;;;32.10;79.60;;;;;;4987334;28;20462;-66
2022/07/25 09:50:32;;;;;;;7.67;7.27;;;32.20;78.90;;;;;;4990262;28;20500;-66
2022/07/25 09:53:01;;;;;;;8.80;8.20;;;32.30;79.20;;;;;;4990467;28;20465;-66
2022/07/25 09:55:29;;;;;;;7.50;7.10;;;32.40;79.30;;;;;;4986472;28;20565;-66
2022/07/25 09:57:57;;;;;;;7.13;6.73;;;32.30;78.40;;;;;;4987667;28;20553;-66
2022/07/25 10:00:26;;;;;;;7.53;7.13;;;32.30;79.10;;;;;;4987390;28;20475;-66
2022/07/25 10:03:15;;;;;;;7.77;7.37;;;32.30;79.20;;;;;;4983862;28;20482;-66
2022/07/25 10:06:06;;;;;;;7.37;7.07;;;32.40;78.80;;;;;;4983967;28;20500;-66
2022/07/25 10:08:36;;;;;;;7.43;6.93;;;32.50;78.60;;;;;;4986650;28;20918;-66
2022/07/25 10:11:05;;;;;;;7.50;7.20;;;32.50;78.00;;;;;;4989885;28;20485;-66
2022/07/25 10:13:35;;;;;;;7.63;7.13;;;32.60;78.00;;;;;;4991583;28;20958;-66
2022/07/25 10:16:02;;;;;;;7.10;6.70;;;32.60;77.90;;;;;;4997452;23;20506;-66
2022/07/25 10:18:30;;;;;;;7.47;7.07;;;32.60;78.30;;;;;;4975490;28;20868;-66
2022/07/25 10:21:10;;;;;;;6.70;6.40;;;32.70;78.10;;;;;;4976279;28;20478;-66
2022/07/25 10:23:36;;;;;;;7.03;6.63;;;32.80;76.70;;;;;;4978576;28;20464;-66
2022/07/25 10:26:07;;;;;;;7.13;6.67;;;32.80;76.60;;;;;;4971648;28;20554;-66
2022/07/25 10:28:42;;;;;;;7.20;6.80;;;32.90;76.90;;;;;;4970410;28;20565;-66
2022/07/25 10:31:18;;;;;;;6.00;5.63;;;32.90;75.10;;;;;;4968043;28;20462;-66
2022/07/25 10:33:49;;;;;;;7.33;6.93;;;32.80;75.60;;;;;;4971984;28;20545;-66
2022/07/25 10:36:15;;;;;;;7.50;7.00;;;32.80;75.70;;;;;;4966801;28;20566;-66
2022/07/25 10:38:44;;;;;;;6.80;6.40;;;32.80;76.40;;;;;;4971667;28;20868;-66
2022/07/25 10:41:12;;;;;;;6.50;6.13;;;32.90;76.40;;;;;;4974859;28;20471;-66
2022/07/25 10:43:43;;;;;;;6.40;5.93;;;33.10;75.60;;;;;;4975530;28;20469;-66
2022/07/25 10:46:14;;;;;;;6.20;6.00;;;33.00;75.40;;;;;;4965502;28;20517;-66
2022/07/25 10:48:41;;;;;;;6.33;6.03;;;33.10;75.10;;;;;;4973448;28;20470;-66
2022/07/25 10:51:10;;;;;;;6.13;5.90;;;33.20;74.10;;;;;;4975810;28;20472;-66
2022/07/25 10:53:39;;;;;;;6.60;6.40;;;33.10;74.10;;;;;;4960110;28;20805;-66
2022/07/25 10:56:08;;;;;;;6.23;6.03;;;33.10;74.70;;;;;;4960979;28;20491;-66
2022/07/25 10:58:54;;;;;;;6.20;5.77;;;33.20;74.00;;;;;;4961497;28;20479;-66
2022/07/25 11:01:23;;;;;;;6.50;6.20;;;33.20;73.50;;;;;;4970552;28;20997;-66
2022/07/25 11:03:50;;;;;;;6.53;6.20;;;33.50;74.60;;;;;;4969980;28;20476;-66
2022/07/25 11:06:28;;;;;;;6.03;5.83;;;33.70;73.30;;;;;;4970517;28;20499;-67
2022/07/25 11:08:56;;;;;;;5.63;5.43;;;33.90;72.40;;;;;;4972658;28;20478;-67
2022/07/25 11:11:34;;;;;;;7.40;7.00;;;33.80;71.00;;;;;;4967347;28;20482;-65
2022/07/25 11:14:02;;;;;;;6.33;6.10;;;33.90;71.30;;;;;;4968705;28;20458;-66
2022/07/25 11:16:29;;;;;;;6.50;6.20;;;33.70;71.80;;;;;;4966201;28;20556;-66
2022/07/25 11:18:56;;;;;;;6.13;5.93;;;33.70;71.20;;;;;;4965427;28;20839;-66
2022/07/25 11:21:23;;;;;;;6.83;6.57;;;33.60;72.30;;;;;;4970760;28;20463;-66
2022/07/25 11:23:51;;;;;;;6.63;6.43;;;33.50;70.60;;;;;;4973022;28;20578;-66
2022/07/25 11:26:18;;;;;;;5.83;5.73;;;33.40;71.30;;;;;;4964379;28;20493;-66
2022/07/25 11:28:47;;;;;;;5.90;5.60;;;33.40;71.90;;;;;;4974660;28;20478;-66
2022/07/25 11:31:17;;;;;;;6.93;6.53;;;33.40;71.30;;;;;;4970330;28;20561;-66
2022/07/25 11:33:47;;;;;;;6.90;6.60;;;33.50;72.20;;;;;;4974793;28;20477;-66
2022/07/25 11:36:14;;;;;;;7.00;6.70;;;33.70;74.20;;;;;;4968716;28;20491;-66
2022/07/25 11:38:42;;;;;;;6.50;6.23;;;33.60;71.60;;;;;;4966551;28;20550;-67
2022/07/25 11:41:08;;;;;;;6.30;6.10;;;33.40;71.60;;;;;;4962216;28;20478;-66
2022/07/25 11:43:35;;;;;;;7.03;6.63;;;33.30;71.80;;;;;;4974831;28;20583;-66
2022/07/25 11:46:06;;;;;;;6.23;6.03;;;33.10;71.40;;;;;;4964299;28;20498;-66
2022/07/25 11:48:36;;;;;;;6.60;6.20;;;33.10;71.80;;;;;;4976371;28;20470;-66
2022/07/25 11:51:13;;;;;;;6.27;6.03;;;33.20;73.30;;;;;;4976716;28;20482;-66
2022/07/25 11:53:42;;;;;;;6.67;6.37;;;33.40;72.10;;;;;;4970195;28;20577;-67
2022/07/25 11:56:17;;;;;;;6.67;6.30;;;33.60;72.60;;;;;;4972471;28;21074;-66
2022/07/25 11:58:50;;;;;;;5.77;5.47;;;33.70;71.40;;;;;;4964078;28;20506;-67
2022/07/25 12:01:16;;;;;;;6.50;6.00;;;33.70;69.90;;;;;;4968926;28;20563;-67
2022/07/25 12:03:45;;;;;;;7.30;6.90;;;33.50;70.60;;;;;;4967148;28;20911;-67
2022/07/25 12:06:13;;;;;;;6.73;6.43;;;33.40;71.70;;;;;;4971425;28;20581;-67
2022/07/25 12:08:41;;;;;;;6.50;6.30;;;33.40;71.30;;;;;;4974501;28;20841;-66
2022/07/25 12:11:18;;;;;;;6.43;6.20;;;33.40;71.50;;;;;;4965961;28;20463;-66
2022/07/25 12:13:46;;;;;;;6.50;6.20;;;33.20;71.60;;;;;;4969032;28;20877;-67
2022/07/25 12:16:12;;;;;;;7.73;7.20;;;33.20;71.70;;;;;;4971027;28;20503;-67
2022/07/25 12:18:39;;;;;;;7.30;6.80;;;33.10;71.90;;;;;;4968962;28;21105;-67
2022/07/25 12:21:07;;;;;;;6.60;6.20;;;33.20;72.60;;;;;;4971164;28;20465;-67
2022/07/25 12:23:34;;;;;;;7.30;6.93;;;33.40;72.10;;;;;;4970496;28;20855;-66
2022/07/25 12:26:01;;;;;;;6.53;6.33;;;33.60;71.00;;;;;;4972794;28;20560;-67
2022/07/25 12:28:28;;;;;;;7.50;7.20;;;33.70;71.20;;;;;;4961546;28;20463;-67
2022/07/25 12:30:55;;;;;;;7.67;7.17;;;33.90;70.90;;;;;;4971499;28;20499;-67
2022/07/25 12:33:21;;;;;;;6.57;6.27;;;34.00;71.50;;;;;;4965498;28;20578;-67
2022/07/25 12:35:48;;;;;;;7.03;6.70;;;34.20;70.70;;;;;;4966672;28;20574;-67
2022/07/25 12:38:16;;;;;;;6.90;6.50;;;34.20;68.60;;;;;;4954603;28;20475;-67
2022/07/25 12:40:43;;;;;;;6.93;6.37;;;34.30;68.70;;;;;;4958069;28;20529;-67
2022/07/25 12:43:09;;;;;;;6.80;6.37;;;34.20;68.20;;;;;;4970437;28;20490;-67
2022/07/25 12:45:36;;;;;;;7.17;6.87;;;34.10;69.00;;;;;;4971411;28;20522;-67
2022/07/25 12:48:03;;;;;;;6.00;5.80;;;34.00;68.60;;;;;;4970920;28;20471;-67
2022/07/25 12:50:30;;;;;;;6.60;6.30;;;33.80;67.80;;;;;;4970768;28;20822;-67
2022/07/25 12:52:56;;;;;;;6.10;5.70;;;34.00;69.60;;;;;;4970794;28;20948;-67
2022/07/25 12:55:24;;;;;;;6.80;6.50;;;34.10;68.60;;;;;;4966455;28;20608;-66
2022/07/25 12:57:51;;;;;;;6.60;6.30;;;34.10;68.50;;;;;;4970703;28;20467;-66
2022/07/25 13:00:20;;;;;;;6.60;6.30;;;34.10;68.90;;;;;;4972094;28;20553;-66
2022/07/25 13:02:47;;;;;;;7.17;6.90;;;34.00;68.20;;;;;;4970271;28;20490;-66
2022/07/25 13:05:14;;;;;;;6.80;6.50;;;33.80;68.20;;;;;;4971488;28;20503;-67
2022/07/25 13:07:41;;;;;;;6.90;6.60;;;33.70;69.00;;;;;;4958967;28;20464;-67
2022/07/25 13:10:08;;;;;;;6.50;6.10;;;33.60;68.80;;;;;;4952522;28;20481;-67
2022/07/25 13:12:36;;;;;;;7.50;7.20;;;33.50;68.90;;;;;;4969501;28;20482;-67
2022/07/25 13:15:04;;;;;;;7.37;6.97;;;33.60;69.80;;;;;;4971681;28;20474;-66
2022/07/25 13:17:31;;;;;;;7.10;6.70;;;33.50;69.30;;;;;;4967120;28;20566;-66
2022/07/25 13:19:58;;;;;;;7.83;7.43;;;33.50;70.20;;;;;;4967814;28;20935;-66
2022/07/25 13:22:26;;;;;;;6.83;6.53;;;33.40;70.30;;;;;;4965031;28;20494;-66
2022/07/25 13:24:53;;;;;;;7.70;7.40;;;33.10;69.20;;;;;;4972739;28;20478;-66
2022/07/25 13:27:20;;;;;;;7.37;7.00;;;33.00;69.90;;;;;;4967960;28;20474;-66
2022/07/25 13:29:52;;;;;;;6.90;6.53;;;32.70;70.00;;;;;;4974594;28;20477;-66
2022/07/25 13:32:19;;;;;;;6.80;6.40;;;32.60;70.60;;;;;;4977433;28;20536;-66
2022/07/25 13:34:46;;;;;;;8.00;7.40;;;32.40;70.70;;;;;;4972390;28;20472;-66
2022/07/25 13:37:12;;;;;;;8.40;7.73;;;32.30;71.60;;;;;;4972461;28;20545;-66
2022/07/25 13:39:41;;;;;;;7.77;7.40;;;32.10;71.60;;;;;;4971084;28;20472;-66
2022/07/25 13:42:07;;;;;;;7.00;6.40;;;32.00;71.90;;;;;;4969842;28;20545;-66
2022/07/25 13:44:35;;;;;;;8.43;7.63;;;31.90;72.50;;;;;;4970981;28;20562;-67
2022/07/25 13:47:03;;;;;;;8.27;7.57;;;31.90;72.90;;;;;;4972429;28;20581;-67
2022/07/25 13:49:31;;;;;;;8.50;7.90;;;31.80;72.90;;;;;;4979839;28;20505;-67
2022/07/25 13:51:57;;;;;;;8.13;7.63;;;31.70;73.00;;;;;;4978037;28;20479;-67
2022/07/25 13:54:24;;;;;;;7.83;7.33;;;31.60;73.40;;;;;;4978220;28;21022;-67
2022/07/25 13:56:51;;;;;;;7.30;6.90;;;31.60;74.60;;;;;;4967633;28;21020;-67
2022/07/25 13:59:17;;;;;;;8.90;8.20;;;31.70;75.00;;;;;;4971663;28;20909;-67
2022/07/25 14:01:46;;;;;;;7.77;7.37;;;31.80;76.00;;;;;;4971508;28;20883;-67
2022/07/25 14:04:14;;;;;;;7.70;7.20;;;31.80;75.80;;;;;;4962385;28;20896;-67
2022/07/25 14:06:40;;;;;;;7.00;6.70;;;31.90;75.20;;;;;;4971008;28;20496;-66
2022/07/25 14:09:07;;;;;;;8.27;7.87;;;31.90;75.30;;;;;;4966824;28;20485;-67
2022/07/25 14:11:34;;;;;;;7.27;6.80;;;31.90;75.20;;;;;;4970081;28;20470;-67
2022/07/25 14:14:00;;;;;;;8.10;7.70;;;32.00;76.20;;;;;;4960382;28;20469;-67
2022/07/25 14:16:27;;;;;;;8.03;7.63;;;32.00;75.80;;;;;;4954672;28;20493;-66
2022/07/25 14:18:54;;;;;;;7.73;7.30;;;32.20;75.70;;;;;;4961030;28;21109;-67
2022/07/25 14:21:23;;;;;;;7.20;6.80;;;32.30;75.80;;;;;;4961037;28;21041;-67
2022/07/25 14:23:49;;;;;;;7.63;7.23;;;32.50;75.30;;;;;;4966126;28;20606;-67
2022/07/25 14:26:16;;;;;;;7.60;7.20;;;32.50;74.90;;;;;;4964046;28;20502;-67
2022/07/25 14:28:43;;;;;;;8.50;7.90;;;32.70;75.40;;;;;;4972622;28;20533;-67
2022/07/25 14:31:10;;;;;;;7.87;7.43;;;32.90;75.20;;;;;;4964647;28;20833;-67
2022/07/25 14:33:38;;;;;;;7.63;7.33;;;32.90;74.20;;;;;;4972988;28;20462;-67
2022/07/25 14:36:06;;;;;;;7.80;7.40;;;32.80;74.70;;;;;;4977750;28;20556;-67
2022/07/25 14:38:34;;;;;;;7.80;7.30;;;32.80;74.50;;;;;;4968997;28;20479;-66
2022/07/25 14:41:01;;;;;;;8.30;7.70;;;32.80;74.00;;;;;;4973288;28;21147;-66
2022/07/25 14:43:27;;;;;;;7.37;7.03;;;32.80;74.10;;;;;;4971724;28;20536;-66
2022/07/25 14:45:54;;;;;;;7.50;7.00;;;32.60;72.80;;;;;;4965767;28;20493;-66
2022/07/25 14:48:21;;;;;;;7.40;7.10;;;32.50;74.60;;;;;;4971598;28;20510;-66
2022/07/25 14:50:47;;;;;;;7.27;6.77;;;32.40;75.30;;;;;;4964728;28;20466;-66
2022/07/25 14:53:14;;;;;;;6.93;6.63;;;32.30;74.00;;;;;;4967132;28;20528;-66
2022/07/25 14:55:43;;;;;;;7.20;6.53;;;32.10;73.80;;;;;;4955595;28;20647;-66
2022/07/25 14:58:10;;;;;;;7.50;7.20;;;32.10;74.80;;;;;;4974715;28;20477;-66
2022/07/25 15:00:40;;;;;;;8.03;7.53;;;32.10;73.80;;;;;;4963548;28;20816;-67
2022/07/25 15:03:08;;;;;;;6.97;6.67;;;32.20;74.30;;;;;;4973234;28;20521;-67
2022/07/25 15:05:35;;;;;;;6.20;6.00;;;32.20;74.00;;;;;;4970394;28;20508;-67
2022/07/25 15:08:02;;;;;;;6.10;5.87;;;32.20;74.50;;;;;;4975359;28;20558;-66
2022/07/25 15:10:28;;;;;;;6.43;6.13;;;32.20;75.00;;;;;;4972165;28;20464;-66
2022/07/25 15:12:56;;;;;;;6.43;6.10;;;32.20;75.00;;;;;;4973068;28;20477;-68
2022/07/25 15:15:23;;;;;;;6.90;6.50;;;32.00;75.10;;;;;;4977727;28;20860;-65
2022/07/25 15:17:49;;;;;;;7.63;7.23;;;31.90;74.80;;;;;;4967974;28;20969;-65
2022/07/25 15:20:16;;;;;;;6.67;6.47;;;31.70;75.10;;;;;;4962486;28;20464;-66
2022/07/25 15:22:43;;;;;;;7.10;6.80;;;31.60;75.20;;;;;;4966808;28;20594;-66
2022/07/25 15:25:09;;;;;;;7.63;7.07;;;31.50;75.50;;;;;;4973756;28;20468;-67
2022/07/25 15:27:37;;;;;;;7.50;7.00;;;31.40;76.00;;;;;;4966679;28;20547;-67
2022/07/25 15:30:06;;;;;;;7.70;7.30;;;31.20;75.90;;;;;;4970333;28;20469;-66
2022/07/25 15:32:33;;;;;;;6.63;6.33;;;31.10;76.70;;;;;;4968868;28;20468;-67
2022/07/25 15:35:00;;;;;;;6.87;6.50;;;31.00;77.20;;;;;;4971431;28;20811;-66
2022/07/25 15:37:28;;;;;;;8.77;8.17;;;30.90;77.10;;;;;;4966291;28;20850;-66
2022/07/25 15:39:55;;;;;;;8.80;8.20;;;30.50;86.90;;;;;;4972717;28;20472;-67
2022/07/25 15:42:21;;;;;;;9.23;8.30;;;29.60;91.20;;;;;;4965861;28;20872;-67
2022/07/25 15:44:48;;;;;;;9.80;9.10;;;28.60;93.30;;;;;;4963557;28;20488;-67
2022/07/25 15:47:16;;;;;;;10.87;10.00;;;27.80;96.00;;;;;;4964424;28;20492;-67
2022/07/25 15:49:43;;;;;;;13.77;12.37;;;27.00;99.90;;;;;;4966368;28;20471;-67
2022/07/25 15:52:09;;;;;;;12.83;11.80;;;25.90;99.90;;;;;;4973477;28;20888;-66
2022/07/25 15:54:36;;;;;;;15.47;13.00;;;25.10;99.90;;;;;;4970073;28;20979;-68
2022/07/25 15:57:03;;;;;;;13.40;12.07;;;24.50;99.90;;;;;;4969489;28;20818;-66
2022/07/25 15:59:29;;;;;;;12.13;11.13;;;24.00;99.90;;;;;;4968748;28;20471;-67
2022/07/25 16:01:56;;;;;;;11.90;10.90;;;23.70;99.90;;;;;;4963619;28;20496;-67
2022/07/25 16:04:24;;;;;;;12.70;11.57;;;23.60;99.90;;;;;;4971747;28;20488;-67
2022/07/25 16:06:51;;;;;;;10.63;9.63;;;23.30;99.90;;;;;;4956547;28;20510;-67
2022/07/25 16:09:19;;;;;;;11.67;10.33;;;23.10;99.90;;;;;;4970894;28;20477;-67
2022/07/25 16:11:46;;;;;;;13.00;11.87;;;22.90;99.90;;;;;;4975756;28;20508;-66
2022/07/25 16:14:13;;;;;;;10.67;9.70;;;22.80;99.90;;;;;;4966326;28;20525;-67
2022/07/25 16:16:39;;;;;;;12.37;10.17;;;22.60;99.90;;;;;;4984427;23;20563;-72
2022/07/25 16:19:07;;;;;;;10.80;9.90;;;22.40;99.90;;;;;;4967967;28;20472;-69
2022/07/25 16:21:35;;;;;;;11.83;10.73;;;22.30;99.90;;;;;;4968332;28;20523;-69
2022/07/25 16:24:01;;;;;;;12.07;10.97;;;22.10;99.90;;;;;;4969462;28;20480;-68
2022/07/25 16:26:28;;;;;;;13.30;11.93;;;22.00;99.90;;;;;;4958600;28;20489;-69
2022/07/25 16:28:55;;;;;;;15.40;10.80;;;22.00;99.90;;;;;;4947401;28;20547;-69
2022/07/25 16:31:21;;;;;;;11.87;10.87;;;22.00;99.90;;;;;;4948810;28;20527;-69
2022/07/25 16:33:48;;;;;;;10.80;9.90;;;22.00;99.90;;;;;;4945582;28;20475;-71
2022/07/25 16:36:15;;;;;;;10.90;9.80;;;22.00;99.90;;;;;;4947146;28;20493;-69
2022/07/25 16:38:44;;;;;;;11.70;10.70;;;21.90;99.90;;;;;;4943706;29;20470;-68
2022/07/25 16:41:10;;;;;;;12.03;10.67;;;22.00;99.90;;;;;;4949270;29;20529;-71
2022/07/25 16:43:37;;;;;;;9.33;8.63;;;22.20;99.90;;;;;;4950160;28;20492;-68
2022/07/25 16:46:04;;;;;;;10.77;9.83;;;22.20;99.90;;;;;;4951810;28;20489;-68
2022/07/25 16:48:30;;;;;;;11.73;10.70;;;22.30;99.90;;;;;;4947724;28;20539;-70
2022/07/25 16:50:57;;;;;;;12.30;11.10;;;22.30;99.90;;;;;;4950691;28;20820;-69